Terminal Aerodrome Forecast
Issued by NWS Albany, NY

Home | Current Version | Previous Version | Text Only | Print | Product List | Glossary On
Versions: 1 2 3 4 5 6 7 8 9 10 11 12 13 14 15 16 17 18 19 20 21 22 23 24
000
FTUS41 KALY 251147
TAFGFL
TAF
KGFL 251147Z 2512/2612 19006KT P6SM FEW200
     FM251600 22007KT P6SM FEW150
     FM251900 25009G16KT P6SM SCT050
     FM260000 29006KT P6SM SCT250
     FM260600 00000KT P6SM FEW250=

USA.gov is the U.S. government's official web portal to all federal, state and local government web resources and services.